首页
METAR-TAF:

METAR-TAF

机场 :

Watertown, 紐約州, 美国

纬度: 43-59-31N, 经度: 076-01-18W, 海拔: 99米

当前天气观测

该预报发布于33分钟前的23:33 UTC
风速4节,风向南转西南
温度 7°C
湿度 81%
气压 1003 hPa
能見度: 16.1公里
散云层高于1800英尺
散云层高于3400英尺
阴天层高于6500英尺

METAR: KART 082333Z AUTO 20004KT 10SM SCT018 SCT034 OVC065 07/04 A2963 RMK AO2 T00670039

时间: 20:06 (00:06 UTC)

预报

该预报发布于29分钟前的23:37 UTC
预报有效从09日的 00点(UTC)到 09日的 24点(UTC)
风速5节,风向西南
能見度: 10公里
多云层高于2500英尺
从 09日的 0100点(UTC)
风速3节,风向多变
能見度: 10公里
多云层高于3500英尺
从 09日的 0700点(UTC)
风速5节,风向南转南东
能見度: 10公里
阴天层高于5000英尺
从 09日的 1100点(UTC)
风速10节,风向东南,有时为18节阵风
能見度: 9.7公里
阴天层高于2500英尺
小阵雨
从 09日的 1400点(UTC)
风速5节,风向多变
能見度: 8.0公里
阴天层高于700英尺
阵雨
从 09日的 1800点(UTC)
风速20节,风向西,有时为30节阵风
能見度: 10公里
多云层高于2500英尺

TAF: KART 082337Z 0900/0924 22005KT P6SM BKN025 FM090100 VRB03KT P6SM BKN035 FM090700 16005KT P6SM OVC050 FM091100 14010G18KT 6SM -SHRA OVC025 FM091400 VRB05KT 5SM SHRA OVC007 FM091800 28020G30KT P6SM BKN025

超过4000个机场的气象观测和天气预报(METAR&TAF报告)。

可查询的气象台以黄色和红色小点在地图上表示。

将鼠标移到小点上方,可查看气象台名称。

然后点击查看天气观测和预报。

如需切换地图:点击带黑十字的绿色按钮放大地图;点击带横线的绿色按钮缩小地图;或者点击绿色箭头查看邻近地区的地图。


METAR-TAF: